sensor_id;sensor_type;location;lat;lon;timestamp;P1;durP1;ratioP1;P2;durP2;ratioP2
7985;SDS011;4038;42.612;23.066;2023-03-29T00:01:23;22.63;;;21.23;;
7985;SDS011;4038;42.612;23.066;2023-03-29T00:03:49;22.90;;;21.50;;
7985;SDS011;4038;42.612;23.066;2023-03-29T00:06:15;22.07;;;20.67;;
7985;SDS011;4038;42.612;23.066;2023-03-29T00:08:46;22.97;;;21.27;;
7985;SDS011;4038;42.612;23.066;2023-03-29T00:11:15;21.53;;;20.13;;
7985;SDS011;4038;42.612;23.066;2023-03-29T00:13:40;21.93;;;20.43;;
7985;SDS011;4038;42.612;23.066;2023-03-29T00:16:06;21.37;;;19.97;;
7985;SDS011;4038;42.612;23.066;2023-03-29T00:18:31;21.77;;;20.37;;
7985;SDS011;4038;42.612;23.066;2023-03-29T00:20:57;22.63;;;21.13;;
7985;SDS011;4038;42.612;23.066;2023-03-29T00:23:23;21.23;;;19.90;;
7985;SDS011;4038;42.612;23.066;2023-03-29T00:25:49;21.43;;;20.03;;
7985;SDS011;4038;42.612;23.066;2023-03-29T00:28:15;21.10;;;19.60;;
7985;SDS011;4038;42.612;23.066;2023-03-29T00:30:40;21.10;;;19.77;;
7985;SDS011;4038;42.612;23.066;2023-03-29T00:33:05;22.53;;;20.90;;
7985;SDS011;4038;42.612;23.066;2023-03-29T00:35:31;21.97;;;20.47;;
7985;SDS011;4038;42.612;23.066;2023-03-29T00:37:56;21.97;;;20.57;;
7985;SDS011;4038;42.612;23.066;2023-03-29T00:40:22;21.27;;;19.87;;
7985;SDS011;4038;42.612;23.066;2023-03-29T00:42:47;21.03;;;19.73;;
7985;SDS011;4038;42.612;23.066;2023-03-29T00:45:16;22.43;;;21.03;;
7985;SDS011;4038;42.612;23.066;2023-03-29T00:47:47;21.83;;;20.47;;
7985;SDS011;4038;42.612;23.066;2023-03-29T00:52:40;21.30;;;19.90;;
7985;SDS011;4038;42.612;23.066;2023-03-29T00:55:07;21.73;;;20.33;;
7985;SDS011;4038;42.612;23.066;2023-03-29T00:57:35;21.97;;;20.57;;
7985;SDS011;4038;42.612;23.066;2023-03-29T01:00:01;21.73;;;20.43;;
7985;SDS011;4038;42.612;23.066;2023-03-29T01:02:28;21.17;;;19.77;;
7985;SDS011;4038;42.612;23.066;2023-03-29T01:04:59;22.53;;;21.03;;
7985;SDS011;4038;42.612;23.066;2023-03-29T01:07:33;21.57;;;20.27;;
7985;SDS011;4038;42.612;23.066;2023-03-29T01:10:03;22.23;;;20.83;;
7985;SDS011;4038;42.612;23.066;2023-03-29T01:12:30;21.67;;;20.37;;
7985;SDS011;4038;42.612;23.066;2023-03-29T01:15:01;21.77;;;20.37;;
7985;SDS011;4038;42.612;23.066;2023-03-29T01:17:27;21.70;;;20.40;;
7985;SDS011;4038;42.612;23.066;2023-03-29T01:20:39;21.80;;;20.50;;
7985;SDS011;4038;42.612;23.066;2023-03-29T01:23:06;21.43;;;20.13;;
7985;SDS011;4038;42.612;23.066;2023-03-29T01:25:55;22.10;;;20.70;;
7985;SDS011;4038;42.612;23.066;2023-03-29T01:28:22;21.90;;;20.57;;
7985;SDS011;4038;42.612;23.066;2023-03-29T01:30:51;22.13;;;20.80;;
7985;SDS011;4038;42.612;23.066;2023-03-29T01:33:26;21.10;;;19.67;;
7985;SDS011;4038;42.612;23.066;2023-03-29T01:35:56;21.50;;;19.97;;
7985;SDS011;4038;42.612;23.066;2023-03-29T01:38:27;21.80;;;20.40;;
7985;SDS011;4038;42.612;23.066;2023-03-29T01:40:54;20.97;;;19.77;;
7985;SDS011;4038;42.612;23.066;2023-03-29T01:43:25;21.80;;;20.50;;
7985;SDS011;4038;42.612;23.066;2023-03-29T01:46:25;21.37;;;19.70;;
7985;SDS011;4038;42.612;23.066;2023-03-29T01:48:53;22.03;;;20.63;;
7985;SDS011;4038;42.612;23.066;2023-03-29T01:56:26;21.03;;;19.73;;
7985;SDS011;4038;42.612;23.066;2023-03-29T01:59:02;21.83;;;20.53;;
7985;SDS011;4038;42.612;23.066;2023-03-29T02:01:31;21.93;;;20.47;;
7985;SDS011;4038;42.612;23.066;2023-03-29T02:04:00;21.93;;;20.53;;
7985;SDS011;4038;42.612;23.066;2023-03-29T02:06:27;22.37;;;20.97;;
7985;SDS011;4038;42.612;23.066;2023-03-29T02:08:54;21.13;;;19.83;;
7985;SDS011;4038;42.612;23.066;2023-03-29T02:11:20;21.63;;;20.33;;
7985;SDS011;4038;42.612;23.066;2023-03-29T02:13:47;22.20;;;20.83;;
7985;SDS011;4038;42.612;23.066;2023-03-29T02:16:12;21.80;;;20.50;;
7985;SDS011;4038;42.612;23.066;2023-03-29T02:18:39;22.53;;;21.03;;
7985;SDS011;4038;42.612;23.066;2023-03-29T02:21:05;21.67;;;20.37;;
7985;SDS011;4038;42.612;23.066;2023-03-29T02:23:35;22.40;;;21.10;;
7985;SDS011;4038;42.612;23.066;2023-03-29T02:26:03;21.73;;;20.43;;
7985;SDS011;4038;42.612;23.066;2023-03-29T02:28:30;22.27;;;20.77;;
7985;SDS011;4038;42.612;23.066;2023-03-29T02:36:52;21.43;;;20.10;;
7985;SDS011;4038;42.612;23.066;2023-03-29T02:38:58;20.47;;;19.27;;
7985;SDS011;4038;42.612;23.066;2023-03-29T02:41:24;21.20;;;19.80;;
7985;SDS011;4038;42.612;23.066;2023-03-29T02:43:50;21.87;;;20.57;;
7985;SDS011;4038;42.612;23.066;2023-03-29T02:46:16;22.43;;;21.07;;
7985;SDS011;4038;42.612;23.066;2023-03-29T02:48:42;22.20;;;20.80;;
7985;SDS011;4038;42.612;23.066;2023-03-29T02:51:10;22.00;;;20.60;;
7985;SDS011;4038;42.612;23.066;2023-03-29T02:53:41;22.00;;;20.50;;
7985;SDS011;4038;42.612;23.066;2023-03-29T02:56:07;22.37;;;21.07;;
7985;SDS011;4038;42.612;23.066;2023-03-29T02:58:33;21.73;;;20.33;;
7985;SDS011;4038;42.612;23.066;2023-03-29T03:01:00;21.00;;;19.70;;
7985;SDS011;4038;42.612;23.066;2023-03-29T03:03:26;21.33;;;19.80;;
7985;SDS011;4038;42.612;23.066;2023-03-29T03:05:51;20.53;;;19.23;;
7985;SDS011;4038;42.612;23.066;2023-03-29T03:08:17;20.27;;;18.97;;
7985;SDS011;4038;42.612;23.066;2023-03-29T03:10:42;20.47;;;19.17;;
7985;SDS011;4038;42.612;23.066;2023-03-29T03:13:08;21.57;;;20.27;;
7985;SDS011;4038;42.612;23.066;2023-03-29T03:15:33;20.33;;;19.13;;
7985;SDS011;4038;42.612;23.066;2023-03-29T03:18:00;21.20;;;19.27;;
7985;SDS011;4038;42.612;23.066;2023-03-29T03:20:26;20.17;;;18.97;;
7985;SDS011;4038;42.612;23.066;2023-03-29T03:22:51;19.73;;;18.43;;
7985;SDS011;4038;42.612;23.066;2023-03-29T03:25:17;20.70;;;19.30;;
7985;SDS011;4038;42.612;23.066;2023-03-29T03:27:44;19.83;;;18.53;;
7985;SDS011;4038;42.612;23.066;2023-03-29T03:30:10;19.27;;;18.17;;
7985;SDS011;4038;42.612;23.066;2023-03-29T03:32:35;19.93;;;18.73;;
7985;SDS011;4038;42.612;23.066;2023-03-29T03:35:01;19.73;;;18.53;;
7985;SDS011;4038;42.612;23.066;2023-03-29T03:37:27;19.30;;;18.10;;
7985;SDS011;4038;42.612;23.066;2023-03-29T03:39:53;20.07;;;18.87;;
7985;SDS011;4038;42.612;23.066;2023-03-29T03:42:18;19.67;;;18.47;;
7985;SDS011;4038;42.612;23.066;2023-03-29T03:44:43;19.20;;;18.00;;
7985;SDS011;4038;42.612;23.066;2023-03-29T03:47:09;19.63;;;18.40;;
7985;SDS011;4038;42.612;23.066;2023-03-29T03:49:34;19.60;;;18.40;;
7985;SDS011;4038;42.612;23.066;2023-03-29T03:52:00;18.87;;;17.60;;
7985;SDS011;4038;42.612;23.066;2023-03-29T03:54:25;19.60;;;18.40;;
7985;SDS011;4038;42.612;23.066;2023-03-29T03:56:51;19.70;;;18.50;;
7985;SDS011;4038;42.612;23.066;2023-03-29T03:59:17;19.60;;;18.30;;
7985;SDS011;4038;42.612;23.066;2023-03-29T04:01:42;19.27;;;18.07;;
7985;SDS011;4038;42.612;23.066;2023-03-29T04:04:08;19.80;;;18.60;;
7985;SDS011;4038;42.612;23.066;2023-03-29T04:06:34;19.60;;;18.30;;
7985;SDS011;4038;42.612;23.066;2023-03-29T04:08:59;20.20;;;18.90;;
7985;SDS011;4038;42.612;23.066;2023-03-29T04:11:24;20.10;;;18.80;;
7985;SDS011;4038;42.612;23.066;2023-03-29T04:13:50;19.23;;;18.03;;
7985;SDS011;4038;42.612;23.066;2023-03-29T04:16:15;20.60;;;19.00;;
7985;SDS011;4038;42.612;23.066;2023-03-29T04:18:40;19.90;;;18.60;;
7985;SDS011;4038;42.612;23.066;2023-03-29T04:21:06;19.20;;;18.00;;
7985;SDS011;4038;42.612;23.066;2023-03-29T04:23:31;19.37;;;18.07;;
7985;SDS011;4038;42.612;23.066;2023-03-29T04:25:56;20.17;;;18.77;;
7985;SDS011;4038;42.612;23.066;2023-03-29T04:28:21;20.50;;;19.10;;
7985;SDS011;4038;42.612;23.066;2023-03-29T04:30:47;20.37;;;19.07;;
7985;SDS011;4038;42.612;23.066;2023-03-29T04:33:13;19.97;;;18.77;;
7985;SDS011;4038;42.612;23.066;2023-03-29T04:35:38;20.73;;;19.27;;
7985;SDS011;4038;42.612;23.066;2023-03-29T04:38:03;21.10;;;19.60;;
7985;SDS011;4038;42.612;23.066;2023-03-29T04:40:29;21.03;;;19.67;;
7985;SDS011;4038;42.612;23.066;2023-03-29T04:42:54;20.50;;;19.20;;
7985;SDS011;4038;42.612;23.066;2023-03-29T04:45:20;20.37;;;18.97;;
7985;SDS011;4038;42.612;23.066;2023-03-29T04:47:45;20.33;;;18.97;;
7985;SDS011;4038;42.612;23.066;2023-03-29T04:50:11;21.13;;;19.40;;
7985;SDS011;4038;42.612;23.066;2023-03-29T04:52:36;25.03;;;22.87;;
7985;SDS011;4038;42.612;23.066;2023-03-29T04:55:01;21.10;;;19.80;;
7985;SDS011;4038;42.612;23.066;2023-03-29T04:57:27;21.53;;;20.03;;
7985;SDS011;4038;42.612;23.066;2023-03-29T04:59:53;21.03;;;19.63;;
7985;SDS011;4038;42.612;23.066;2023-03-29T05:02:18;20.60;;;19.20;;
7985;SDS011;4038;42.612;23.066;2023-03-29T05:04:44;21.10;;;19.60;;
7985;SDS011;4038;42.612;23.066;2023-03-29T05:07:09;20.40;;;19.00;;
7985;SDS011;4038;42.612;23.066;2023-03-29T05:09:35;20.17;;;18.87;;
7985;SDS011;4038;42.612;23.066;2023-03-29T05:12:01;20.47;;;19.07;;
7985;SDS011;4038;42.612;23.066;2023-03-29T05:14:26;21.07;;;19.63;;
7985;SDS011;4038;42.612;23.066;2023-03-29T05:16:51;21.23;;;19.83;;
7985;SDS011;4038;42.612;23.066;2023-03-29T05:19:17;21.00;;;19.40;;
7985;SDS011;4038;42.612;23.066;2023-03-29T05:21:45;21.20;;;19.67;;
7985;SDS011;4038;42.612;23.066;2023-03-29T05:24:10;21.03;;;19.67;;
7985;SDS011;4038;42.612;23.066;2023-03-29T05:26:36;21.30;;;19.90;;
7985;SDS011;4038;42.612;23.066;2023-03-29T05:29:01;21.60;;;20.10;;
7985;SDS011;4038;42.612;23.066;2023-03-29T05:31:26;20.77;;;19.37;;
7985;SDS011;4038;42.612;23.066;2023-03-29T05:33:52;21.27;;;19.67;;
7985;SDS011;4038;42.612;23.066;2023-03-29T05:36:17;22.23;;;20.73;;
7985;SDS011;4038;42.612;23.066;2023-03-29T05:38:43;20.50;;;19.10;;
7985;SDS011;4038;42.612;23.066;2023-03-29T05:41:09;20.53;;;19.23;;
7985;SDS011;4038;42.612;23.066;2023-03-29T05:43:34;20.03;;;18.73;;
7985;SDS011;4038;42.612;23.066;2023-03-29T05:46:00;20.70;;;19.20;;
7985;SDS011;4038;42.612;23.066;2023-03-29T05:48:25;19.03;;;17.83;;
7985;SDS011;4038;42.612;23.066;2023-03-29T05:50:52;20.83;;;19.43;;
7985;SDS011;4038;42.612;23.066;2023-03-29T05:53:18;19.70;;;18.37;;
7985;SDS011;4038;42.612;23.066;2023-03-29T05:55:43;20.07;;;18.67;;
7985;SDS011;4038;42.612;23.066;2023-03-29T05:58:09;20.17;;;18.90;;
7985;SDS011;4038;42.612;23.066;2023-03-29T06:00:35;19.47;;;18.20;;
7985;SDS011;4038;42.612;23.066;2023-03-29T06:03:03;19.77;;;18.17;;
7985;SDS011;4038;42.612;23.066;2023-03-29T06:05:28;20.10;;;18.80;;
7985;SDS011;4038;42.612;23.066;2023-03-29T06:07:53;20.27;;;18.97;;
7985;SDS011;4038;42.612;23.066;2023-03-29T06:10:18;20.30;;;19.00;;
7985;SDS011;4038;42.612;23.066;2023-03-29T06:12:44;19.90;;;18.70;;
7985;SDS011;4038;42.612;23.066;2023-03-29T06:15:11;19.53;;;18.33;;
7985;SDS011;4038;42.612;23.066;2023-03-29T06:17:37;20.00;;;18.70;;
7985;SDS011;4038;42.612;23.066;2023-03-29T06:20:03;19.80;;;18.60;;
7985;SDS011;4038;42.612;23.066;2023-03-29T06:22:34;20.90;;;19.50;;
7985;SDS011;4038;42.612;23.066;2023-03-29T06:25:00;21.17;;;19.87;;
7985;SDS011;4038;42.612;23.066;2023-03-29T06:27:25;19.93;;;18.63;;
7985;SDS011;4038;42.612;23.066;2023-03-29T06:29:51;20.53;;;19.23;;
7985;SDS011;4038;42.612;23.066;2023-03-29T06:32:16;19.97;;;18.67;;
7985;SDS011;4038;42.612;23.066;2023-03-29T06:34:41;20.13;;;18.83;;
7985;SDS011;4038;42.612;23.066;2023-03-29T06:37:07;19.80;;;18.60;;
7985;SDS011;4038;42.612;23.066;2023-03-29T06:39:32;20.07;;;18.87;;
7985;SDS011;4038;42.612;23.066;2023-03-29T06:41:57;21.60;;;20.20;;
7985;SDS011;4038;42.612;23.066;2023-03-29T06:44:23;22.10;;;20.70;;
7985;SDS011;4038;42.612;23.066;2023-03-29T06:46:49;22.00;;;20.60;;
7985;SDS011;4038;42.612;23.066;2023-03-29T06:49:15;22.27;;;20.67;;
7985;SDS011;4038;42.612;23.066;2023-03-29T06:51:40;22.17;;;20.67;;
7985;SDS011;4038;42.612;23.066;2023-03-29T06:54:05;22.70;;;21.27;;
7985;SDS011;4038;42.612;23.066;2023-03-29T06:56:31;22.27;;;20.77;;
7985;SDS011;4038;42.612;23.066;2023-03-29T06:58:56;21.80;;;20.50;;
7985;SDS011;4038;42.612;23.066;2023-03-29T07:01:22;22.60;;;21.00;;
7985;SDS011;4038;42.612;23.066;2023-03-29T07:03:47;21.73;;;20.43;;
7985;SDS011;4038;42.612;23.066;2023-03-29T07:06:13;21.87;;;20.50;;
7985;SDS011;4038;42.612;23.066;2023-03-29T07:08:40;22.80;;;21.20;;
7985;SDS011;4038;42.612;23.066;2023-03-29T07:11:12;21.23;;;19.83;;
7985;SDS011;4038;42.612;23.066;2023-03-29T07:13:41;21.23;;;19.70;;
7985;SDS011;4038;42.612;23.066;2023-03-29T07:16:10;22.33;;;20.77;;
7985;SDS011;4038;42.612;23.066;2023-03-29T07:18:38;21.47;;;20.07;;
7985;SDS011;4038;42.612;23.066;2023-03-29T07:21:05;21.03;;;19.63;;
7985;SDS011;4038;42.612;23.066;2023-03-29T07:23:31;21.67;;;20.20;;
7985;SDS011;4038;42.612;23.066;2023-03-29T07:25:56;21.50;;;20.13;;
7985;SDS011;4038;42.612;23.066;2023-03-29T07:28:21;20.80;;;19.47;;
7985;SDS011;4038;42.612;23.066;2023-03-29T07:30:46;20.57;;;19.27;;
7985;SDS011;4038;42.612;23.066;2023-03-29T07:33:12;21.90;;;20.60;;
7985;SDS011;4038;42.612;23.066;2023-03-29T07:35:37;21.27;;;19.67;;
7985;SDS011;4038;42.612;23.066;2023-03-29T07:38:03;21.10;;;19.70;;
7985;SDS011;4038;42.612;23.066;2023-03-29T07:40:29;21.00;;;19.70;;
7985;SDS011;4038;42.612;23.066;2023-03-29T07:42:55;19.97;;;18.77;;
7985;SDS011;4038;42.612;23.066;2023-03-29T07:45:21;20.77;;;19.43;;
7985;SDS011;4038;42.612;23.066;2023-03-29T07:47:47;19.70;;;18.50;;
7985;SDS011;4038;42.612;23.066;2023-03-29T07:50:14;20.70;;;19.20;;
7985;SDS011;4038;42.612;23.066;2023-03-29T07:52:39;19.85;;;18.65;;
7985;SDS011;4038;42.612;23.066;2023-03-29T07:55:08;20.97;;;19.60;;
7985;SDS011;4038;42.612;23.066;2023-03-29T07:57:34;20.63;;;19.33;;
7985;SDS011;4038;42.612;23.066;2023-03-29T07:59:59;22.47;;;21.07;;
7985;SDS011;4038;42.612;23.066;2023-03-29T08:02:25;22.43;;;20.87;;
7985;SDS011;4038;42.612;23.066;2023-03-29T08:04:53;21.80;;;20.30;;
7985;SDS011;4038;42.612;23.066;2023-03-29T08:07:20;21.10;;;19.80;;
7985;SDS011;4038;42.612;23.066;2023-03-29T08:09:46;21.70;;;20.40;;
7985;SDS011;4038;42.612;23.066;2023-03-29T08:12:11;21.40;;;20.10;;
7985;SDS011;4038;42.612;23.066;2023-03-29T08:14:36;22.60;;;21.10;;
7985;SDS011;4038;42.612;23.066;2023-03-29T08:17:02;22.10;;;20.60;;
7985;SDS011;4038;42.612;23.066;2023-03-29T08:19:28;21.67;;;20.27;;
7985;SDS011;4038;42.612;23.066;2023-03-29T08:21:53;22.17;;;20.67;;
7985;SDS011;4038;42.612;23.066;2023-03-29T08:24:18;22.93;;;21.40;;
7985;SDS011;4038;42.612;23.066;2023-03-29T08:26:43;21.53;;;20.00;;
7985;SDS011;4038;42.612;23.066;2023-03-29T08:29:09;22.30;;;20.80;;
7985;SDS011;4038;42.612;23.066;2023-03-29T08:31:34;21.67;;;20.00;;
7985;SDS011;4038;42.612;23.066;2023-03-29T08:33:59;22.73;;;21.33;;
7985;SDS011;4038;42.612;23.066;2023-03-29T08:36:25;22.93;;;21.43;;
7985;SDS011;4038;42.612;23.066;2023-03-29T08:38:51;23.33;;;21.83;;
7985;SDS011;4038;42.612;23.066;2023-03-29T08:41:23;22.47;;;21.07;;
7985;SDS011;4038;42.612;23.066;2023-03-29T08:43:54;21.17;;;19.77;;
7985;SDS011;4038;42.612;23.066;2023-03-29T08:46:27;21.87;;;20.47;;
7985;SDS011;4038;42.612;23.066;2023-03-29T08:48:58;22.80;;;21.20;;
7985;SDS011;4038;42.612;23.066;2023-03-29T08:51:29;21.27;;;19.87;;
7985;SDS011;4038;42.612;23.066;2023-03-29T08:56:51;21.83;;;20.43;;
7985;SDS011;4038;42.612;23.066;2023-03-29T08:59:28;22.50;;;21.00;;
7985;SDS011;4038;42.612;23.066;2023-03-29T09:01:56;21.10;;;19.70;;
7985;SDS011;4038;42.612;23.066;2023-03-29T09:04:28;21.40;;;19.90;;
7985;SDS011;4038;42.612;23.066;2023-03-29T09:06:55;22.10;;;20.70;;
7985;SDS011;4038;42.612;23.066;2023-03-29T09:09:22;22.13;;;20.30;;
7985;SDS011;4038;42.612;23.066;2023-03-29T09:14:34;21.23;;;19.83;;
7985;SDS011;4038;42.612;23.066;2023-03-29T09:17:45;20.70;;;19.40;;
7985;SDS011;4038;42.612;23.066;2023-03-29T09:22:23;21.57;;;20.17;;
7985;SDS011;4038;42.612;23.066;2023-03-29T09:27:30;21.60;;;20.30;;
7985;SDS011;4038;42.612;23.066;2023-03-29T09:32:30;22.70;;;21.20;;
7985;SDS011;4038;42.612;23.066;2023-03-29T09:37:32;22.23;;;20.90;;
7985;SDS011;4038;42.612;23.066;2023-03-29T09:39:58;22.17;;;20.77;;
7985;SDS011;4038;42.612;23.066;2023-03-29T09:42:24;22.48;;;21.08;;
7985;SDS011;4038;42.612;23.066;2023-03-29T09:44:53;22.23;;;20.93;;
7985;SDS011;4038;42.612;23.066;2023-03-29T09:47:23;23.50;;;21.57;;
7985;SDS011;4038;42.612;23.066;2023-03-29T09:49:50;22.90;;;21.50;;
7985;SDS011;4038;42.612;23.066;2023-03-29T09:52:17;23.73;;;22.23;;
7985;SDS011;4038;42.612;23.066;2023-03-29T09:54:44;23.23;;;21.83;;
7985;SDS011;4038;42.612;23.066;2023-03-29T09:57:12;22.67;;;21.17;;
7985;SDS011;4038;42.612;23.066;2023-03-29T09:59:39;23.00;;;21.50;;
7985;SDS011;4038;42.612;23.066;2023-03-29T10:02:09;21.65;;;20.15;;
7985;SDS011;4038;42.612;23.066;2023-03-29T10:04:35;22.07;;;20.77;;
7985;SDS011;4038;42.612;23.066;2023-03-29T10:07:02;22.23;;;20.83;;
7985;SDS011;4038;42.612;23.066;2023-03-29T10:09:28;23.60;;;21.30;;
7985;SDS011;4038;42.612;23.066;2023-03-29T10:11:55;22.67;;;21.20;;
7985;SDS011;4038;42.612;23.066;2023-03-29T10:14:32;22.73;;;21.23;;
7985;SDS011;4038;42.612;23.066;2023-03-29T10:16:58;22.40;;;20.87;;
7985;SDS011;4038;42.612;23.066;2023-03-29T10:19:30;21.60;;;20.20;;
7985;SDS011;4038;42.612;23.066;2023-03-29T10:21:59;22.55;;;20.92;;
7985;SDS011;4038;42.612;23.066;2023-03-29T10:24:25;22.20;;;20.75;;
7985;SDS011;4038;42.612;23.066;2023-03-29T10:26:51;23.23;;;21.83;;
7985;SDS011;4038;42.612;23.066;2023-03-29T10:29:20;23.20;;;21.80;;
7985;SDS011;4038;42.612;23.066;2023-03-29T10:31:46;23.27;;;21.88;;
7985;SDS011;4038;42.612;23.066;2023-03-29T10:34:12;22.20;;;20.80;;
7985;SDS011;4038;42.612;23.066;2023-03-29T10:36:39;22.23;;;20.80;;
7985;SDS011;4038;42.612;23.066;2023-03-29T10:39:06;23.02;;;21.52;;
7985;SDS011;4038;42.612;23.066;2023-03-29T10:41:32;21.70;;;20.15;;
7985;SDS011;4038;42.612;23.066;2023-03-29T10:43:59;22.93;;;21.43;;
7985;SDS011;4038;42.612;23.066;2023-03-29T10:48:51;23.73;;;22.23;;
7985;SDS011;4038;42.612;23.066;2023-03-29T10:51:19;22.42;;;21.02;;
7985;SDS011;4038;42.612;23.066;2023-03-29T10:53:45;23.15;;;21.65;;
7985;SDS011;4038;42.612;23.066;2023-03-29T11:01:24;22.88;;;21.25;;
7985;SDS011;4038;42.612;23.066;2023-03-29T11:04:05;24.80;;;23.30;;
7985;SDS011;4038;42.612;23.066;2023-03-29T11:06:33;25.85;;;24.15;;
7985;SDS011;4038;42.612;23.066;2023-03-29T11:09:01;25.50;;;23.63;;
7985;SDS011;4038;42.612;23.066;2023-03-29T11:14:01;23.50;;;21.90;;
7985;SDS011;4038;42.612;23.066;2023-03-29T11:16:34;23.73;;;22.42;;
7985;SDS011;4038;42.612;23.066;2023-03-29T11:24:25;24.88;;;23.38;;
7985;SDS011;4038;42.612;23.066;2023-03-29T11:29:27;23.75;;;22.35;;
7985;SDS011;4038;42.612;23.066;2023-03-29T11:39:14;23.52;;;22.13;;
7985;SDS011;4038;42.612;23.066;2023-03-29T11:41:43;23.70;;;22.30;;
7985;SDS011;4038;42.612;23.066;2023-03-29T11:44:13;24.58;;;22.67;;
7985;SDS011;4038;42.612;23.066;2023-03-29T11:51:39;23.25;;;21.85;;
7985;SDS011;4038;42.612;23.066;2023-03-29T12:00:14;23.25;;;21.77;;
7985;SDS011;4038;42.612;23.066;2023-03-29T12:05:38;23.58;;;22.08;;
7985;SDS011;4038;42.612;23.066;2023-03-29T12:08:06;24.30;;;22.85;;
7985;SDS011;4038;42.612;23.066;2023-03-29T12:13:28;22.93;;;21.43;;
7985;SDS011;4038;42.612;23.066;2023-03-29T12:18:24;22.88;;;21.48;;
7985;SDS011;4038;42.612;23.066;2023-03-29T12:20:53;23.42;;;22.02;;
7985;SDS011;4038;42.612;23.066;2023-03-29T12:23:21;24.25;;;22.70;;
7985;SDS011;4038;42.612;23.066;2023-03-29T12:25:56;22.95;;;21.27;;
7985;SDS011;4038;42.612;23.066;2023-03-29T12:28:29;23.88;;;22.58;;
7985;SDS011;4038;42.612;23.066;2023-03-29T12:31:01;24.70;;;23.20;;
7985;SDS011;4038;42.612;23.066;2023-03-29T12:33:31;23.10;;;21.70;;
7985;SDS011;4038;42.612;23.066;2023-03-29T12:36:16;22.75;;;21.45;;
7985;SDS011;4038;42.612;23.066;2023-03-29T12:38:45;22.50;;;21.10;;
7985;SDS011;4038;42.612;23.066;2023-03-29T12:41:16;22.65;;;21.25;;
7985;SDS011;4038;42.612;23.066;2023-03-29T12:43:42;23.02;;;21.63;;
7985;SDS011;4038;42.612;23.066;2023-03-29T12:46:09;22.25;;;20.85;;
7985;SDS011;4038;42.612;23.066;2023-03-29T12:48:36;22.17;;;20.77;;
7985;SDS011;4038;42.612;23.066;2023-03-29T12:51:03;23.25;;;21.75;;
7985;SDS011;4038;42.612;23.066;2023-03-29T12:53:39;23.42;;;22.02;;
7985;SDS011;4038;42.612;23.066;2023-03-29T13:01:07;22.27;;;20.88;;
7985;SDS011;4038;42.612;23.066;2023-03-29T13:06:02;21.83;;;20.40;;
7985;SDS011;4038;42.612;23.066;2023-03-29T13:11:00;22.88;;;21.38;;
7985;SDS011;4038;42.612;23.066;2023-03-29T13:13:27;24.65;;;22.83;;
7985;SDS011;4038;42.612;23.066;2023-03-29T13:15:53;22.23;;;20.73;;
7985;SDS011;4038;42.612;23.066;2023-03-29T13:20:45;21.92;;;20.52;;
7985;SDS011;4038;42.612;23.066;2023-03-29T13:38:24;21.17;;;19.88;;
7985;SDS011;4038;42.612;23.066;2023-03-29T13:41:00;21.05;;;19.70;;
7985;SDS011;4038;42.612;23.066;2023-03-29T13:43:33;21.05;;;19.65;;
7985;SDS011;4038;42.612;23.066;2023-03-29T13:51:03;23.08;;;21.67;;
7985;SDS011;4038;42.612;23.066;2023-03-29T13:55:57;22.77;;;21.38;;
7985;SDS011;4038;42.612;23.066;2023-03-29T13:58:29;23.45;;;21.88;;
7985;SDS011;4038;42.612;23.066;2023-03-29T14:03:44;23.55;;;22.05;;
7985;SDS011;4038;42.612;23.066;2023-03-29T14:06:11;24.15;;;22.52;;
7985;SDS011;4038;42.612;23.066;2023-03-29T14:08:40;23.00;;;21.58;;
7985;SDS011;4038;42.612;23.066;2023-03-29T14:11:07;22.65;;;21.23;;
7985;SDS011;4038;42.612;23.066;2023-03-29T14:13:36;24.02;;;22.63;;
7985;SDS011;4038;42.612;23.066;2023-03-29T14:16:02;23.50;;;22.10;;
7985;SDS011;4038;42.612;23.066;2023-03-29T14:18:35;23.02;;;21.52;;
7985;SDS011;4038;42.612;23.066;2023-03-29T14:21:01;22.95;;;21.55;;
7985;SDS011;4038;42.612;23.066;2023-03-29T14:23:27;23.80;;;22.15;;
7985;SDS011;4038;42.612;23.066;2023-03-29T14:25:54;23.98;;;22.40;;
7985;SDS011;4038;42.612;23.066;2023-03-29T14:28:28;22.25;;;20.85;;
7985;SDS011;4038;42.612;23.066;2023-03-29T14:30:54;21.90;;;20.50;;
7985;SDS011;4038;42.612;23.066;2023-03-29T14:33:30;24.17;;;22.67;;
7985;SDS011;4038;42.612;23.066;2023-03-29T14:35:59;22.85;;;21.45;;
7985;SDS011;4038;42.612;23.066;2023-03-29T14:38:24;22.58;;;21.17;;
7985;SDS011;4038;42.612;23.066;2023-03-29T14:40:51;22.88;;;21.50;;
7985;SDS011;4038;42.612;23.066;2023-03-29T14:43:17;22.50;;;21.08;;
7985;SDS011;4038;42.612;23.066;2023-03-29T14:45:43;22.10;;;20.70;;
7985;SDS011;4038;42.612;23.066;2023-03-29T14:48:10;21.88;;;20.58;;
7985;SDS011;4038;42.612;23.066;2023-03-29T14:50:36;22.48;;;21.17;;
7985;SDS011;4038;42.612;23.066;2023-03-29T14:53:01;21.73;;;20.42;;
7985;SDS011;4038;42.612;23.066;2023-03-29T14:55:27;23.50;;;21.88;;
7985;SDS011;4038;42.612;23.066;2023-03-29T14:57:53;20.90;;;19.60;;
7985;SDS011;4038;42.612;23.066;2023-03-29T15:00:38;21.63;;;20.33;;
7985;SDS011;4038;42.612;23.066;2023-03-29T15:03:10;21.58;;;20.08;;
7985;SDS011;4038;42.612;23.066;2023-03-29T15:05:40;21.33;;;19.98;;
7985;SDS011;4038;42.612;23.066;2023-03-29T15:08:06;22.17;;;20.67;;
7985;SDS011;4038;42.612;23.066;2023-03-29T15:10:36;21.40;;;20.10;;
7985;SDS011;4038;42.612;23.066;2023-03-29T15:13:03;22.10;;;20.75;;
7985;SDS011;4038;42.612;23.066;2023-03-29T15:15:29;22.70;;;21.25;;
7985;SDS011;4038;42.612;23.066;2023-03-29T15:17:55;21.77;;;20.38;;
7985;SDS011;4038;42.612;23.066;2023-03-29T15:20:30;21.15;;;19.75;;
7985;SDS011;4038;42.612;23.066;2023-03-29T15:22:58;21.00;;;19.63;;
7985;SDS011;4038;42.612;23.066;2023-03-29T15:25:25;21.40;;;20.00;;
7985;SDS011;4038;42.612;23.066;2023-03-29T15:27:53;21.63;;;20.23;;
7985;SDS011;4038;42.612;23.066;2023-03-29T15:30:19;22.55;;;20.67;;
7985;SDS011;4038;42.612;23.066;2023-03-29T15:32:52;22.48;;;20.48;;
7985;SDS011;4038;42.612;23.066;2023-03-29T15:35:21;21.30;;;20.00;;
7985;SDS011;4038;42.612;23.066;2023-03-29T15:37:47;21.53;;;20.23;;
7985;SDS011;4038;42.612;23.066;2023-03-29T15:40:17;21.10;;;19.80;;
7985;SDS011;4038;42.612;23.066;2023-03-29T15:42:43;21.67;;;20.27;;
7985;SDS011;4038;42.612;23.066;2023-03-29T15:45:13;21.50;;;20.13;;
7985;SDS011;4038;42.612;23.066;2023-03-29T15:47:38;21.60;;;20.20;;
7985;SDS011;4038;42.612;23.066;2023-03-29T15:50:03;22.30;;;21.00;;
7985;SDS011;4038;42.612;23.066;2023-03-29T15:52:29;21.37;;;20.13;;
7985;SDS011;4038;42.612;23.066;2023-03-29T15:54:54;21.80;;;20.40;;
7985;SDS011;4038;42.612;23.066;2023-03-29T15:57:19;21.20;;;19.80;;
7985;SDS011;4038;42.612;23.066;2023-03-29T15:59:45;22.50;;;21.10;;
7985;SDS011;4038;42.612;23.066;2023-03-29T16:02:11;22.40;;;20.80;;
7985;SDS011;4038;42.612;23.066;2023-03-29T16:04:37;23.13;;;21.73;;
7985;SDS011;4038;42.612;23.066;2023-03-29T16:07:05;23.90;;;22.30;;
7985;SDS011;4038;42.612;23.066;2023-03-29T16:09:31;23.17;;;21.47;;
7985;SDS011;4038;42.612;23.066;2023-03-29T16:11:56;23.00;;;21.40;;
7985;SDS011;4038;42.612;23.066;2023-03-29T16:14:25;22.87;;;21.47;;
7985;SDS011;4038;42.612;23.066;2023-03-29T16:16:52;22.50;;;21.10;;
7985;SDS011;4038;42.612;23.066;2023-03-29T16:19:19;24.73;;;23.13;;
7985;SDS011;4038;42.612;23.066;2023-03-29T16:21:44;23.50;;;22.00;;
7985;SDS011;4038;42.612;23.066;2023-03-29T16:24:13;23.37;;;21.87;;
7985;SDS011;4038;42.612;23.066;2023-03-29T16:26:39;24.17;;;22.57;;